Terminal Aerodrome Forecast
Issued by NWS

Home | Current Version | Previous Version | Text Only | Print | Product List | Glossary On
Versions: 1 2 3 4 5 6 7 8 9 10 11 12 13 14 15 16 17 18 19 20 21 22 23 24 25 26 27 28
000
FTUS41 KBUF 180800 AAA
TAFJHW
TAF AMD
KJHW 180858Z 1809/1906 19004KT P6SM SKC
     FM181400 25010KT P6SM FEW060 FEW250
     FM181700 31012G20KT P6SM FEW060 SCT250
     FM182100 35012KT P6SM FEW060 FEW250
     FM190100 02008KT P6SM SKC
     FM190500 06008KT P6SM SKC
      AMD LTD TO CLD VIS AND WIND=

USA.gov is the U.S. government's official web portal to all federal, state and local government web resources and services.